Time;durP1;ratioP1;P1;durP2;ratioP2;P2;SDS_P1;SDS_P2;PMS_P1;PMS_P2;Temp;Humidity;BMP_temperature;BMP_pressure;BME280_temperature;BME280_humidity;BME280_pressure;Samples;Min_cycle;Max_cycle;Signal;HPM_P1;HPM_P2
2022/03/05 00:00:25;;;;;;;144.25;74.30;;;;;;;;;;5094846;28;20058;-65
2022/03/05 00:02:51;;;;;;;148.48;74.63;;;;;;;;;;5094964;28;20024;-65
2022/03/05 00:05:18;;;;;;;138.90;71.28;;;;;;;;;;5095119;28;20030;-65
2022/03/05 00:07:45;;;;;;;141.15;69.82;;;;;;;;;;5076798;28;20032;-65
2022/03/05 00:10:11;;;;;;;125.63;63.42;;;;;;;;;;5094962;28;20028;-65
2022/03/05 00:12:37;;;;;;;117.88;62.45;;;;;;;;;;5095110;28;20032;-65
2022/03/05 00:15:04;;;;;;;125.47;66.20;;;;;;;;;;5073017;28;20056;-65
2022/03/05 00:17:31;;;;;;;123.60;64.68;;;;;;;;;;5074608;28;20532;-65
2022/03/05 00:19:57;;;;;;;133.18;63.78;;;;;;;;;;5074840;28;20031;-65
2022/03/05 00:22:24;;;;;;;120.65;63.83;;;;;;;;;;5074141;28;20384;-65
2022/03/05 00:24:50;;;;;;;119.47;63.45;;;;;;;;;;5074416;28;20038;-65
2022/03/05 00:27:17;;;;;;;129.13;67.38;;;;;;;;;;5074402;28;20470;-65
2022/03/05 00:29:44;;;;;;;130.55;69.70;;;;;;;;;;5074311;28;20517;-65
2022/03/05 00:32:11;;;;;;;134.52;70.88;;;;;;;;;;5072867;28;20036;-65
2022/03/05 00:34:37;;;;;;;122.68;64.47;;;;;;;;;;5074369;28;20064;-65
2022/03/05 00:37:05;;;;;;;124.65;67.47;;;;;;;;;;5074173;28;20099;-65
2022/03/05 00:39:31;;;;;;;135.98;71.32;;;;;;;;;;5074433;28;20025;-65
2022/03/05 00:41:58;;;;;;;138.23;68.55;;;;;;;;;;5073804;28;20024;-65
2022/03/05 00:44:24;;;;;;;118.10;62.78;;;;;;;;;;5074053;28;20029;-65
2022/03/05 00:46:50;;;;;;;105.82;56.53;;;;;;;;;;5073914;28;20036;-65
2022/03/05 00:49:16;;;;;;;117.88;62.50;;;;;;;;;;5072688;28;20017;-64
2022/03/05 00:51:42;;;;;;;100.85;55.55;;;;;;;;;;5073623;28;20070;-65
2022/03/05 00:54:09;;;;;;;108.95;58.20;;;;;;;;;;5073338;28;20025;-65
2022/03/05 00:56:35;;;;;;;101.28;54.13;;;;;;;;;;5072504;28;20420;-65
2022/03/05 00:59:02;;;;;;;103.90;55.95;;;;;;;;;;5073747;28;20020;-65
2022/03/05 01:01:28;;;;;;;113.03;60.63;;;;;;;;;;5073733;28;20024;-65
2022/03/05 01:03:54;;;;;;;115.35;60.47;;;;;;;;;;5073656;28;20032;-64
2022/03/05 01:06:20;;;;;;;123.97;66.30;;;;;;;;;;5073568;28;20033;-65
2022/03/05 01:08:46;;;;;;;129.30;67.53;;;;;;;;;;5072289;28;20040;-65
2022/03/05 01:11:16;;;;;;;152.00;77.50;;;;;;;;;;5073540;28;20029;-65
2022/03/05 01:13:46;;;;;;;141.95;74.63;;;;;;;;;;5073559;28;20024;-64
2022/03/05 01:16:12;;;;;;;143.00;76.28;;;;;;;;;;5073104;28;20084;-65
2022/03/05 01:18:38;;;;;;;135.93;71.72;;;;;;;;;;5073685;28;20029;-65
2022/03/05 01:21:04;;;;;;;138.18;70.50;;;;;;;;;;5073345;28;20091;-65
2022/03/05 01:23:31;;;;;;;127.05;65.60;;;;;;;;;;5071977;28;20032;-65
2022/03/05 01:25:58;;;;;;;121.47;63.45;;;;;;;;;;5071791;28;20558;-65
2022/03/05 01:28:25;;;;;;;110.43;60.17;;;;;;;;;;5073301;28;20025;-65
2022/03/05 01:30:51;;;;;;;122.03;64.28;;;;;;;;;;5071980;28;20021;-65
2022/03/05 01:33:17;;;;;;;131.98;68.53;;;;;;;;;;5073200;28;20032;-65
2022/03/05 01:35:46;;;;;;;132.63;69.30;;;;;;;;;;5073294;28;20385;-65
2022/03/05 01:38:13;;;;;;;127.82;66.80;;;;;;;;;;5073154;28;20029;-65
2022/03/05 01:40:39;;;;;;;117.97;62.50;;;;;;;;;;5073141;28;20027;-65
2022/03/05 01:43:05;;;;;;;128.48;67.18;;;;;;;;;;5073043;28;20458;-65
2022/03/05 01:45:32;;;;;;;118.60;61.92;;;;;;;;;;5073150;28;20059;-65
2022/03/05 01:47:59;;;;;;;113.43;62.33;;;;;;;;;;5072087;28;20029;-65
2022/03/05 01:50:25;;;;;;;123.88;66.97;;;;;;;;;;5071829;28;20028;-65
2022/03/05 01:52:51;;;;;;;118.45;59.83;;;;;;;;;;5072976;28;20728;-65
2022/03/05 01:55:17;;;;;;;121.70;61.85;;;;;;;;;;5073009;28;20029;-65
2022/03/05 01:57:44;;;;;;;120.00;66.15;;;;;;;;;;5073006;28;20048;-65
2022/03/05 02:00:12;;;;;;;133.82;68.72;;;;;;;;;;5071660;28;20056;-65
2022/03/05 02:02:39;;;;;;;128.52;64.80;;;;;;;;;;5071623;28;20093;-65
2022/03/05 02:05:05;;;;;;;117.45;63.13;;;;;;;;;;5071629;28;20033;-65
2022/03/05 02:07:31;;;;;;;117.05;63.50;;;;;;;;;;5072882;28;20032;-65
2022/03/05 02:09:58;;;;;;;126.00;66.30;;;;;;;;;;5073149;28;20461;-64
2022/03/05 02:12:27;;;;;;;135.00;68.78;;;;;;;;;;5071536;28;20025;-65
2022/03/05 02:14:53;;;;;;;121.90;66.03;;;;;;;;;;5071172;28;20586;-65
2022/03/05 02:17:19;;;;;;;124.22;65.03;;;;;;;;;;5072793;28;20465;-64
2022/03/05 02:19:46;;;;;;;117.72;65.20;;;;;;;;;;5072729;28;20484;-65
2022/03/05 02:22:12;;;;;;;120.95;65.10;;;;;;;;;;5072752;28;20473;-65
2022/03/05 02:24:41;;;;;;;127.18;67.13;;;;;;;;;;5072758;28;20028;-65
2022/03/05 02:27:08;;;;;;;122.43;63.40;;;;;;;;;;5073819;28;20025;-66
2022/03/05 02:29:35;;;;;;;121.90;64.38;;;;;;;;;;5076713;28;20037;-67
2022/03/05 02:32:01;;;;;;;125.05;64.72;;;;;;;;;;5076596;28;20029;-66
2022/03/05 02:34:28;;;;;;;120.68;64.45;;;;;;;;;;5075235;28;20071;-66
2022/03/05 02:36:54;;;;;;;123.90;63.65;;;;;;;;;;5076545;28;20016;-66
2022/03/05 02:39:24;;;;;;;128.75;65.10;;;;;;;;;;5075373;28;20043;-66
2022/03/05 02:41:50;;;;;;;108.35;56.55;;;;;;;;;;5075192;28;20114;-66
2022/03/05 02:44:16;;;;;;;107.00;53.50;;;;;;;;;;5076299;28;20033;-66
2022/03/05 02:46:43;;;;;;;95.68;49.25;;;;;;;;;;5075035;28;20036;-66
2022/03/05 02:49:09;;;;;;;99.97;50.92;;;;;;;;;;5076288;28;20031;-66
2022/03/05 02:51:35;;;;;;;111.82;56.45;;;;;;;;;;5076244;28;20670;-67
2022/03/05 02:54:02;;;;;;;95.60;47.25;;;;;;;;;;5076270;28;20484;-66
2022/03/05 02:56:28;;;;;;;102.57;49.30;;;;;;;;;;5074814;28;20029;-67
2022/03/05 02:58:54;;;;;;;119.38;61.72;;;;;;;;;;5074771;28;20416;-67
2022/03/05 03:01:20;;;;;;;203.15;101.75;;;;;;;;;;5074702;28;20082;-66
2022/03/05 03:03:47;;;;;;;165.65;85.60;;;;;;;;;;5075934;28;20036;-66
2022/03/05 03:06:13;;;;;;;172.57;87.38;;;;;;;;;;5074651;28;20033;-67
2022/03/05 03:08:39;;;;;;;141.50;72.82;;;;;;;;;;5075627;28;20103;-67
2022/03/05 03:11:05;;;;;;;109.20;58.13;;;;;;;;;;5074608;28;20027;-67
2022/03/05 03:13:31;;;;;;;124.40;57.38;;;;;;;;;;5075793;28;20120;-67
2022/03/05 03:15:58;;;;;;;95.15;48.10;;;;;;;;;;5094871;28;20504;-67
2022/03/05 03:18:24;;;;;;;83.68;41.08;;;;;;;;;;5095968;28;20030;-67
2022/03/05 03:20:50;;;;;;;90.82;41.83;;;;;;;;;;5077733;28;20028;-67
2022/03/05 03:23:17;;;;;;;88.07;43.28;;;;;;;;;;5095829;28;20063;-67
2022/03/05 03:25:43;;;;;;;88.35;44.28;;;;;;;;;;5095895;28;20032;-67
2022/03/05 03:28:09;;;;;;;83.68;44.08;;;;;;;;;;5077584;28;20024;-67
2022/03/05 03:30:35;;;;;;;78.88;37.90;;;;;;;;;;5095740;28;20046;-67
2022/03/05 03:33:02;;;;;;;76.75;38.30;;;;;;;;;;5077490;28;20025;-67
2022/03/05 03:35:28;;;;;;;70.70;34.50;;;;;;;;;;5095684;28;20103;-67
2022/03/05 03:37:55;;;;;;;72.97;35.88;;;;;;;;;;5095165;28;20115;-67
2022/03/05 03:40:21;;;;;;;69.40;34.42;;;;;;;;;;5077170;28;20103;-67
2022/03/05 03:42:48;;;;;;;68.85;35.22;;;;;;;;;;5095140;28;20034;-67
2022/03/05 03:45:15;;;;;;;70.22;35.47;;;;;;;;;;5077307;28;20038;-67
2022/03/05 03:47:43;;;;;;;72.25;35.17;;;;;;;;;;5095446;28;20052;-67
2022/03/05 03:50:10;;;;;;;75.55;32.78;;;;;;;;;;5095438;28;20020;-67
2022/03/05 03:52:36;;;;;;;74.18;35.38;;;;;;;;;;5095388;28;20043;-66
2022/03/05 03:55:03;;;;;;;95.32;43.45;;;;;;;;;;5077133;28;20032;-66
2022/03/05 03:57:30;;;;;;;164.57;76.97;;;;;;;;;;5095218;28;20019;-66
2022/03/05 03:59:56;;;;;;;157.40;75.50;;;;;;;;;;5076628;28;20077;-66
2022/03/05 04:02:23;;;;;;;139.15;64.30;;;;;;;;;;5094920;28;20468;-66
2022/03/05 04:04:49;;;;;;;127.20;61.13;;;;;;;;;;5095042;28;20111;-66
2022/03/05 04:10:00;;;;;;;133.85;62.22;;;;;;;;;;5094827;28;20042;-65
2022/03/05 04:12:27;;;;;;;109.97;53.65;;;;;;;;;;5094967;28;20028;-65
2022/03/05 04:14:54;;;;;;;76.30;39.85;;;;;;;;;;5094518;28;20044;-66
2022/03/05 04:17:22;;;;;;;87.47;41.20;;;;;;;;;;5076626;28;20472;-66
2022/03/05 04:19:48;;;;;;;102.85;46.00;;;;;;;;;;5094821;28;20027;-66
2022/03/05 04:22:14;;;;;;;90.22;40.28;;;;;;;;;;5094746;28;20028;-66
2022/03/05 04:24:41;;;;;;;75.10;38.38;;;;;;;;;;5076416;28;20123;-66
2022/03/05 04:27:07;;;;;;;77.28;38.55;;;;;;;;;;5094791;28;20032;-66
2022/03/05 04:29:34;;;;;;;84.35;39.42;;;;;;;;;;5094621;28;20099;-67
2022/03/05 04:32:00;;;;;;;80.47;37.28;;;;;;;;;;5094842;28;20032;-67
2022/03/05 04:34:27;;;;;;;75.28;35.45;;;;;;;;;;5094720;28;20024;-67
2022/03/05 04:36:53;;;;;;;77.22;36.63;;;;;;;;;;5094788;28;20034;-67
2022/03/05 04:39:19;;;;;;;78.03;35.50;;;;;;;;;;5094472;28;20016;-67
2022/03/05 04:41:45;;;;;;;77.53;36.28;;;;;;;;;;5094376;28;20031;-67
2022/03/05 04:44:11;;;;;;;75.47;36.80;;;;;;;;;;5094217;28;20120;-67
2022/03/05 04:46:38;;;;;;;78.47;36.05;;;;;;;;;;5076152;28;20123;-67
2022/03/05 04:49:04;;;;;;;76.53;37.85;;;;;;;;;;5094028;28;20036;-67
2022/03/05 04:51:31;;;;;;;72.10;35.38;;;;;;;;;;5093875;28;20495;-67
2022/03/05 04:53:57;;;;;;;77.38;34.33;;;;;;;;;;5094153;28;20028;-67
2022/03/05 04:56:23;;;;;;;73.25;34.42;;;;;;;;;;5093840;28;20089;-69
2022/03/05 04:58:50;;;;;;;72.53;35.88;;;;;;;;;;5075934;28;20077;-68
2022/03/05 05:01:16;;;;;;;73.75;37.65;;;;;;;;;;5075847;28;20572;-69
2022/03/05 05:03:42;;;;;;;83.63;38.97;;;;;;;;;;5093884;28;20038;-68
2022/03/05 05:06:09;;;;;;;83.68;37.58;;;;;;;;;;5093959;28;20054;-68
2022/03/05 05:08:35;;;;;;;80.93;36.92;;;;;;;;;;5093856;28;20024;-68
2022/03/05 05:11:01;;;;;;;72.13;34.78;;;;;;;;;;5075669;28;20480;-69
2022/03/05 05:13:27;;;;;;;78.72;36.72;;;;;;;;;;5075476;28;20028;-69
2022/03/05 05:15:53;;;;;;;76.15;36.50;;;;;;;;;;5093309;28;20056;-68
2022/03/05 05:18:20;;;;;;;80.82;38.42;;;;;;;;;;5093722;28;20032;-66
2022/03/05 05:20:46;;;;;;;84.78;38.22;;;;;;;;;;5093984;28;20161;-65
2022/03/05 05:23:12;;;;;;;74.65;36.63;;;;;;;;;;5093558;28;20085;-66
2022/03/05 05:25:38;;;;;;;75.30;37.53;;;;;;;;;;5074950;28;20034;-66
2022/03/05 05:28:04;;;;;;;75.45;36.58;;;;;;;;;;5075378;28;20028;-66
2022/03/05 05:30:31;;;;;;;70.45;34.40;;;;;;;;;;5075308;28;20032;-65
2022/03/05 05:32:57;;;;;;;74.90;34.67;;;;;;;;;;5075365;28;20032;-66
2022/03/05 05:35:23;;;;;;;73.15;35.45;;;;;;;;;;5075351;28;20088;-66
2022/03/05 05:37:49;;;;;;;74.80;36.50;;;;;;;;;;5075295;28;20041;-66
2022/03/05 05:40:16;;;;;;;77.38;37.05;;;;;;;;;;5075244;28;20024;-66
2022/03/05 05:42:42;;;;;;;69.95;32.03;;;;;;;;;;5093670;28;20035;-66
2022/03/05 05:45:09;;;;;;;61.10;32.25;;;;;;;;;;5093295;28;20024;-66
2022/03/05 05:47:36;;;;;;;64.32;32.30;;;;;;;;;;5093353;28;20024;-66
2022/03/05 05:50:03;;;;;;;66.40;30.58;;;;;;;;;;5093280;28;20024;-66
2022/03/05 05:52:29;;;;;;;61.03;30.85;;;;;;;;;;5093284;28;20372;-66
2022/03/05 05:54:56;;;;;;;67.45;33.67;;;;;;;;;;5093223;28;20028;-66
2022/03/05 05:57:22;;;;;;;73.78;36.70;;;;;;;;;;5093215;28;20028;-66
2022/03/05 05:59:48;;;;;;;86.63;40.67;;;;;;;;;;5093430;28;20048;-66
2022/03/05 06:02:14;;;;;;;79.78;38.35;;;;;;;;;;5092984;28;20484;-67
2022/03/05 06:04:40;;;;;;;76.55;36.45;;;;;;;;;;5074904;28;20468;-66
2022/03/05 06:07:07;;;;;;;69.88;33.00;;;;;;;;;;5092823;28;20035;-66
2022/03/05 06:09:33;;;;;;;65.97;33.13;;;;;;;;;;5093320;28;20024;-66
2022/03/05 06:11:59;;;;;;;69.53;33.13;;;;;;;;;;5093015;28;20081;-66
2022/03/05 06:14:25;;;;;;;69.03;34.00;;;;;;;;;;5092711;28;20071;-66
2022/03/05 06:16:52;;;;;;;70.70;34.08;;;;;;;;;;5092949;28;20020;-66
2022/03/05 06:19:18;;;;;;;72.82;34.33;;;;;;;;;;5092990;28;20051;-67
2022/03/05 06:21:44;;;;;;;63.90;32.38;;;;;;;;;;5092946;28;20103;-66
2022/03/05 06:24:10;;;;;;;64.47;30.08;;;;;;;;;;5074715;28;20505;-66
2022/03/05 06:26:36;;;;;;;56.63;28.02;;;;;;;;;;5092788;28;20480;-65
2022/03/05 06:29:04;;;;;;;59.10;28.10;;;;;;;;;;5100351;28;20028;-65
2022/03/05 06:31:30;;;;;;;53.60;27.30;;;;;;;;;;5103320;28;20028;-65
2022/03/05 06:33:56;;;;;;;54.28;27.42;;;;;;;;;;5083111;28;20028;-65
2022/03/05 06:36:22;;;;;;;54.40;27.42;;;;;;;;;;5084646;28;20023;-65
2022/03/05 06:38:48;;;;;;;57.55;29.73;;;;;;;;;;5087388;28;20158;-65
2022/03/05 06:41:15;;;;;;;51.63;27.05;;;;;;;;;;5093514;28;20032;-65
2022/03/05 06:43:41;;;;;;;55.85;26.83;;;;;;;;;;5092270;28;20464;-66
2022/03/05 06:46:07;;;;;;;56.03;28.15;;;;;;;;;;5092718;28;20081;-66
2022/03/05 06:48:34;;;;;;;52.90;28.40;;;;;;;;;;5092707;28;20031;-66
2022/03/05 06:51:00;;;;;;;60.17;26.15;;;;;;;;;;5092719;28;20107;-66
2022/03/05 06:53:26;;;;;;;53.03;25.80;;;;;;;;;;5085816;28;20084;-66
2022/03/05 06:55:52;;;;;;;53.22;27.60;;;;;;;;;;5100456;28;20035;-65
2022/03/05 06:58:18;;;;;;;52.22;25.73;;;;;;;;;;5092588;28;20119;-66
2022/03/05 07:00:44;;;;;;;53.70;26.63;;;;;;;;;;5074287;28;20050;-65
2022/03/05 07:03:11;;;;;;;55.40;27.13;;;;;;;;;;5074872;28;20166;-65
2022/03/05 07:05:37;;;;;;;58.83;27.58;;;;;;;;;;5074251;28;20028;-65
2022/03/05 07:08:03;;;;;;;55.50;27.45;;;;;;;;;;5092470;28;20469;-65
2022/03/05 07:10:29;;;;;;;47.28;25.80;;;;;;;;;;5105469;28;20051;-65
2022/03/05 07:12:56;;;;;;;54.92;26.73;;;;;;;;;;5091797;28;20120;-65
2022/03/05 07:15:22;;;;;;;48.58;23.60;;;;;;;;;;5094454;28;20105;-66
2022/03/05 07:17:49;;;;;;;48.92;25.13;;;;;;;;;;5095995;28;20039;-66
2022/03/05 07:20:15;;;;;;;41.25;21.23;;;;;;;;;;5095963;28;20024;-66
2022/03/05 07:22:42;;;;;;;47.72;24.08;;;;;;;;;;5095800;28;20031;-67
2022/03/05 07:25:09;;;;;;;50.78;24.02;;;;;;;;;;5094460;28;20039;-66
2022/03/05 07:27:35;;;;;;;44.08;22.67;;;;;;;;;;5094517;28;20028;-66
2022/03/05 07:30:01;;;;;;;46.40;23.77;;;;;;;;;;5096100;28;20410;-66
2022/03/05 07:32:27;;;;;;;44.95;23.00;;;;;;;;;;5095147;28;20031;-66
2022/03/05 07:34:54;;;;;;;42.92;23.40;;;;;;;;;;5095145;28;20024;-67
2022/03/05 07:37:20;;;;;;;44.90;23.77;;;;;;;;;;5093733;28;20027;-67
2022/03/05 07:39:46;;;;;;;45.45;23.48;;;;;;;;;;5093572;28;20161;-66
2022/03/05 07:42:12;;;;;;;48.55;24.92;;;;;;;;;;5094757;28;20457;-66
2022/03/05 07:44:38;;;;;;;45.88;24.70;;;;;;;;;;5096248;28;20134;-67
2022/03/05 07:47:05;;;;;;;45.00;23.63;;;;;;;;;;5076857;28;20036;-67
2022/03/05 07:49:31;;;;;;;41.85;23.65;;;;;;;;;;5095367;28;20020;-67
2022/03/05 07:51:57;;;;;;;59.75;23.45;;;;;;;;;;5095303;28;20024;-66
2022/03/05 07:54:24;;;;;;;39.75;22.35;;;;;;;;;;5077091;28;20023;-69
2022/03/05 07:56:50;;;;;;;45.47;23.85;;;;;;;;;;5076425;28;20024;-71
2022/03/05 07:59:17;;;;;;;38.88;21.40;;;;;;;;;;5076770;28;20054;-70
2022/03/05 08:01:43;;;;;;;43.10;23.70;;;;;;;;;;5095076;28;20024;-68
2022/03/05 08:04:09;;;;;;;40.17;22.80;;;;;;;;;;5076737;28;20032;-68
2022/03/05 08:06:37;;;;;;;44.08;24.08;;;;;;;;;;5076473;28;20028;-68
2022/03/05 08:09:03;;;;;;;51.28;24.70;;;;;;;;;;5094611;28;20028;-73
2022/03/05 08:11:29;;;;;;;48.45;24.92;;;;;;;;;;5094872;28;20028;-66
2022/03/05 08:13:55;;;;;;;39.50;22.00;;;;;;;;;;5094866;28;20036;-68
2022/03/05 08:16:21;;;;;;;48.13;20.02;;;;;;;;;;5094627;28;20056;-67
2022/03/05 08:18:48;;;;;;;43.28;22.08;;;;;;;;;;5093643;28;20057;-67
2022/03/05 08:21:14;;;;;;;41.75;22.80;;;;;;;;;;5076485;28;20126;-65
2022/03/05 08:23:40;;;;;;;38.22;22.20;;;;;;;;;;5093933;28;20373;-65
2022/03/05 08:26:10;;;;;;;39.08;21.83;;;;;;;;;;5075497;28;20032;-69
2022/03/05 08:28:37;;;;;;;41.05;22.20;;;;;;;;;;5093354;28;20028;-68
2022/03/05 08:31:03;;;;;;;40.80;22.98;;;;;;;;;;5075875;28;20119;-66
2022/03/05 08:33:30;;;;;;;42.17;22.95;;;;;;;;;;5094454;28;20031;-65
2022/03/05 08:35:56;;;;;;;44.88;23.63;;;;;;;;;;5076134;28;20038;-65
2022/03/05 08:38:22;;;;;;;44.92;22.63;;;;;;;;;;5094242;28;20110;-65
2022/03/05 08:40:48;;;;;;;35.33;21.80;;;;;;;;;;5075980;28;20032;-66
2022/03/05 08:43:15;;;;;;;41.45;23.00;;;;;;;;;;5076041;28;20047;-67
2022/03/05 08:45:41;;;;;;;37.40;21.75;;;;;;;;;;5094168;28;20082;-66
2022/03/05 08:48:07;;;;;;;42.60;22.50;;;;;;;;;;5094487;28;20027;-66
2022/03/05 08:50:35;;;;;;;41.35;22.02;;;;;;;;;;5075757;28;20030;-66
2022/03/05 08:53:01;;;;;;;39.33;21.70;;;;;;;;;;5075938;28;20023;-67
2022/03/05 08:55:28;;;;;;;39.17;22.77;;;;;;;;;;5094016;28;20024;-68
2022/03/05 08:57:54;;;;;;;40.05;23.50;;;;;;;;;;5099476;28;20031;-66
2022/03/05 09:00:20;;;;;;;43.13;23.88;;;;;;;;;;5103659;28;20020;-66
2022/03/05 09:02:46;;;;;;;43.50;23.85;;;;;;;;;;5103628;28;20032;-68
2022/03/05 09:05:14;;;;;;;42.78;24.98;;;;;;;;;;5091815;28;20024;-64
2022/03/05 09:07:41;;;;;;;37.72;20.80;;;;;;;;;;5114223;28;20031;-64
2022/03/05 09:10:08;;;;;;;37.85;21.52;;;;;;;;;;5114059;28;20024;-65
2022/03/05 09:12:34;;;;;;;37.17;19.90;;;;;;;;;;5113976;28;20482;-65
2022/03/05 09:15:00;;;;;;;46.92;23.23;;;;;;;;;;5113953;28;20043;-65
2022/03/05 09:17:26;;;;;;;44.42;23.17;;;;;;;;;;5095266;28;20028;-65
2022/03/05 09:19:53;;;;;;;39.13;22.08;;;;;;;;;;5113656;28;20537;-65
2022/03/05 09:22:20;;;;;;;43.70;21.75;;;;;;;;;;5095329;28;20073;-65
2022/03/05 09:24:46;;;;;;;59.78;23.33;;;;;;;;;;5113688;28;20034;-65
2022/03/05 09:27:12;;;;;;;33.78;21.42;;;;;;;;;;5095417;28;20034;-65
2022/03/05 09:29:38;;;;;;;37.35;22.75;;;;;;;;;;5095573;28;20019;-65
2022/03/05 09:32:05;;;;;;;42.10;21.90;;;;;;;;;;5113488;28;20069;-65
2022/03/05 09:34:31;;;;;;;34.00;20.08;;;;;;;;;;5113663;28;20039;-65
2022/03/05 09:36:58;;;;;;;32.75;20.98;;;;;;;;;;5094922;28;20119;-66
2022/03/05 09:39:24;;;;;;;34.80;20.08;;;;;;;;;;5113038;28;20022;-66
2022/03/05 09:41:50;;;;;;;32.40;16.00;;;;;;;;;;5113569;28;20024;-68
2022/03/05 09:44:16;;;;;;;25.50;14.93;;;;;;;;;;5113750;28;20028;-68
2022/03/05 09:46:43;;;;;;;23.08;14.68;;;;;;;;;;5095249;28;20028;-68
2022/03/05 09:49:10;;;;;;;35.10;17.55;;;13.50;99.90;;;;;;5112552;28;20027;-68
2022/03/05 09:51:36;;;;;;;29.08;18.27;;;14.00;99.90;;;;;;5111836;28;20102;-68
2022/03/05 09:54:03;;;;;;;27.60;16.48;;;14.00;92.10;;;;;;5093440;28;20204;-68
2022/03/05 09:56:29;;;;;;;30.15;17.00;;;14.60;99.90;;;;;;5111235;28;20038;-68
2022/03/05 09:58:55;;;;;;;29.17;18.17;;;15.00;99.60;;;;;;5094498;28;20041;-68
2022/03/05 10:01:22;;;;;;;29.30;17.38;;;15.00;78.00;;;;;;5094643;28;20024;-68
2022/03/05 10:03:52;;;;;;;26.33;16.20;;;15.20;92.50;;;;;;5113291;28;20024;-67
2022/03/05 10:06:23;;;;;;;26.63;16.57;;;15.60;92.20;;;;;;5113071;28;20034;-67
2022/03/05 10:08:55;;;;;;;27.63;18.02;;;15.90;84.90;;;;;;5111806;28;20783;-67
2022/03/05 10:11:21;;;;;;;24.23;15.95;;;15.60;76.90;;;;;;5111795;28;20557;-67
2022/03/05 10:13:47;;;;;;;28.00;17.13;;;15.80;80.30;;;;;;5093850;28;20024;-67
2022/03/05 10:16:29;;;;;;;25.02;16.80;;;15.80;83.10;;;;;;5113238;28;20077;-66
2022/03/05 10:19:22;;;;;;;35.30;19.83;;;16.00;85.70;;;;;;5113366;28;20433;-66
2022/03/05 10:21:57;;;;;;;49.63;25.08;;;15.50;81.40;;;;;;5113327;28;20047;-66
2022/03/05 10:24:33;;;;;;;67.15;39.40;;;15.70;81.00;;;;;;5113112;28;20066;-66
2022/03/05 10:27:00;;;;;;;68.78;39.97;;;16.30;87.60;;;;;;5094659;28;20461;-66
2022/03/05 10:29:34;;;;;;;43.42;27.15;;;16.50;84.90;;;;;;5113013;28;20031;-65
2022/03/05 10:32:06;;;;;;;43.60;26.73;;;16.50;71.70;;;;;;5112946;28;20131;-65
2022/03/05 10:34:41;;;;;;;;;;;16.20;75.40;;;;;;5094963;28;20039;-65
2022/03/05 10:37:07;;;;;;;33.40;22.10;;;16.60;79.70;;;;;;5094814;28;19904;-66
2022/03/05 10:39:33;;;;;;;36.92;22.15;;;16.50;59.70;;;;;;5095033;28;20073;-64
2022/03/05 10:41:59;;;;;;;33.72;21.70;;;15.60;58.10;;;;;;5100263;28;20025;-64
2022/03/05 10:44:25;;;;;;;39.75;24.65;;;14.50;57.80;;;;;;5074396;28;20032;-64
2022/03/05 10:46:58;;;;;;;35.53;22.55;;;13.60;59.50;;;;;;5092532;28;20039;-65
2022/03/05 10:49:31;;;;;;;36.67;22.63;;;13.60;59.10;;;;;;5095453;28;20534;-65
2022/03/05 10:52:04;;;;;;;34.20;22.45;;;13.50;60.10;;;;;;5096443;28;20020;-65
2022/03/05 10:54:44;;;;;;;35.22;22.83;;;14.10;57.80;;;;;;5096376;28;20036;-65
2022/03/05 10:57:16;;;;;;;38.75;24.67;;;14.50;56.50;;;;;;5078149;28;20397;-66
2022/03/05 10:59:43;;;;;;;35.63;21.35;;;15.00;57.00;;;;;;5095863;28;20020;-68
2022/03/05 11:02:15;;;;;;;38.05;24.17;;;15.30;54.80;;;;;;5096282;28;20036;-65
2022/03/05 11:04:44;;;;;;;38.97;24.35;;;;;;;;;;5095990;28;20063;-66
2022/03/05 11:07:11;;;;;;;36.13;22.65;;;;;;;;;;5096169;28;20028;-66
2022/03/05 11:09:38;;;;;;;39.03;23.88;;;15.10;54.50;;;;;;5096217;28;20464;-68
2022/03/05 11:12:09;;;;;;;36.17;21.90;;;16.60;50.60;;;;;;5095922;28;20024;-67
2022/03/05 11:14:36;;;;;;;39.13;23.35;;;;;;;;;;5095293;28;20040;-68
2022/03/05 11:17:03;;;;;;;42.50;25.90;;;;;;;;;;5095575;28;20468;-63
2022/03/05 11:19:30;;;;;;;38.70;26.15;;;18.00;51.30;;;;;;5095954;28;20027;-64
2022/03/05 11:21:57;;;;;;;38.08;23.20;;;;;;;;;;5095453;28;20020;-64
2022/03/05 11:24:23;;;;;;;42.72;24.80;;;;;;;;;;5095740;28;20031;-66
2022/03/05 11:26:52;;;;;;;35.30;22.55;;;18.30;49.50;;;;;;5095701;28;20039;-68
2022/03/05 11:29:24;;;;;;;33.47;21.70;;;;;;;;;;5096095;28;20070;-67
2022/03/05 11:31:50;;;;;;;34.88;23.95;;;;;;;;;;5095664;28;20028;-67
2022/03/05 11:34:19;;;;;;;38.60;24.00;;;20.90;46.10;;;;;;5095684;28;20028;-66
2022/03/05 11:36:48;;;;;;;38.15;24.00;;;17.70;48.10;;;;;;5095493;28;20024;-66
2022/03/05 11:39:27;;;;;;;35.45;22.65;;;16.50;50.30;;;;;;5095235;28;20385;-67
2022/03/05 11:41:55;;;;;;;41.80;22.95;;;15.50;51.40;;;;;;5095264;28;20031;-65
2022/03/05 11:44:22;;;;;;;32.15;21.30;;;;;;;;;;5077065;28;20036;-67
2022/03/05 11:46:49;;;;;;;33.38;20.75;;;;;;;;;;5095090;28;20052;-64
2022/03/05 11:49:16;;;;;;;34.40;22.45;;;;;;;;;;5076967;28;20120;-65
2022/03/05 11:51:53;;;;;;;37.63;25.52;;;;;;;;;;5077145;28;20917;-68
2022/03/05 11:54:19;;;;;;;34.67;21.85;;;17.50;50.80;;;;;;5114439;28;20024;-66
2022/03/05 11:57:13;;;;;;;29.85;21.23;;;22.80;43.20;;;;;;5097013;28;20036;-64
2022/03/05 11:59:50;;;;;;;32.03;21.90;;;23.60;41.90;;;;;;5115225;28;20059;-68
2022/03/05 12:02:37;;;;;;;30.95;21.65;;;23.90;40.10;;;;;;5096383;28;20093;-72
2022/03/05 12:05:03;;;;;;;28.20;20.20;;;23.90;40.40;;;;;;5094748;28;20032;-66
2022/03/05 12:07:36;;;;;;;33.85;21.48;;;22.80;40.20;;;;;;5076722;28;20055;-66
2022/03/05 12:10:14;;;;;;;30.75;20.08;;;23.20;40.60;;;;;;5094992;28;20032;-66
2022/03/05 12:12:59;;;;;;;29.67;20.42;;;23.90;38.60;;;;;;5076531;28;20130;-68
2022/03/05 12:15:32;;;;;;;28.92;20.13;;;;;;;;;;5094839;28;20079;-66
2022/03/05 12:18:00;;;;;;;34.33;21.90;;;;;;;;;;5094709;28;20031;-66
2022/03/05 12:20:33;;;;;;;31.77;21.08;;;24.00;37.20;;;;;;5076442;28;20024;-66
2022/03/05 12:23:01;;;;;;;36.55;22.20;;;;;;;;;;5094989;28;20426;-66
2022/03/05 12:25:28;;;;;;;32.28;20.88;;;24.10;39.50;;;;;;5094315;28;20060;-65
2022/03/05 12:27:55;;;;;;;33.05;20.40;;;21.10;41.60;;;;;;5093991;28;20409;-66
2022/03/05 12:30:29;;;;;;;31.55;20.20;;;19.40;44.40;;;;;;5094471;28;20036;-65
2022/03/05 12:33:00;;;;;;;38.78;22.70;;;17.30;45.10;;;;;;5094465;28;20028;-64
2022/03/05 12:35:27;;;;;;;30.63;20.92;;;;;;;;;;5076268;28;20039;-64
2022/03/05 12:37:53;;;;;;;32.42;20.00;;;15.40;49.40;;;;;;5075968;28;20081;-65
2022/03/05 12:40:19;;;;;;;34.85;19.45;;;13.70;54.40;;;;;;5094013;28;20025;-63
2022/03/05 12:42:49;;;;;;;30.02;19.95;;;13.00;55.40;;;;;;5076235;28;20028;-65
2022/03/05 12:45:17;;;;;;;28.92;19.52;;;;;;;;;;5094179;28;20024;-64
2022/03/05 12:47:43;;;;;;;29.40;19.58;;;16.50;48.80;;;;;;5084490;28;20016;-65
2022/03/05 12:50:19;;;;;;;29.70;20.58;;;21.80;42.50;;;;;;5102600;28;20038;-65
2022/03/05 12:53:04;;;;;;;30.10;20.25;;;23.40;38.70;;;;;;5102346;28;20483;-66
2022/03/05 12:55:40;;;;;;;29.42;19.88;;;23.40;39.50;;;;;;5092834;28;20385;-64
2022/03/05 12:58:17;;;;;;;30.85;21.20;;;23.60;40.00;;;;;;5102474;28;20674;-65
2022/03/05 13:00:51;;;;;;;28.85;19.65;;;23.70;39.80;;;;;;5101986;28;20034;-70
2022/03/05 13:03:18;;;;;;;33.92;22.40;;;22.30;40.60;;;;;;5100511;28;20476;-67
2022/03/05 13:05:48;;;;;;;29.90;20.85;;;21.70;39.60;;;;;;5096382;28;20036;-66
2022/03/05 13:08:18;;;;;;;29.00;19.17;;;21.50;42.00;;;;;;5075426;28;20082;-65
2022/03/05 13:10:47;;;;;;;26.80;18.40;;;20.00;42.70;;;;;;5074780;28;20032;-65
2022/03/05 13:13:14;;;;;;;28.98;19.55;;;18.10;44.70;;;;;;5093906;28;20383;-68
2022/03/05 13:15:41;;;;;;;32.50;21.83;;;16.30;47.00;;;;;;5093906;28;20050;-67
2022/03/05 13:18:14;;;;;;;34.80;21.88;;;14.80;48.30;;;;;;5093810;28;20024;-67
2022/03/05 13:20:41;;;;;;;34.10;22.15;;;13.90;49.50;;;;;;5075548;28;20484;-67
2022/03/05 13:23:07;;;;;;;35.00;21.05;;;13.40;51.80;;;;;;5075256;28;20030;-67
2022/03/05 13:25:48;;;;;;;32.95;21.02;;;12.80;53.20;;;;;;5075262;28;20118;-66
2022/03/05 13:28:19;;;;;;;32.47;20.00;;;12.10;52.80;;;;;;5075406;28;20024;-66
2022/03/05 13:30:49;;;;;;;38.08;22.17;;;;;;;;;;5093652;28;20020;-65
2022/03/05 13:33:34;;;;;;;35.42;22.30;;;;;;;;;;5093510;28;20024;-66
2022/03/05 13:36:09;;;;;;;36.50;23.13;;;;;;;;;;5093527;28;20056;-65
2022/03/05 13:38:35;;;;;;;36.88;22.27;;;;;;;;;;5093183;28;20024;-65
2022/03/05 13:41:03;;;;;;;34.53;21.90;;;;;;;;;;5093391;28;20524;-65
2022/03/05 13:43:30;;;;;;;37.10;22.33;;;;;;;;;;5075188;28;20028;-70
2022/03/05 13:45:58;;;;;;;36.08;21.50;;;;;;;;;;5091374;28;20030;-67
2022/03/05 13:48:26;;;;;;;33.45;21.17;;;;;;;;;;5095844;28;20069;-65
2022/03/05 13:50:52;;;;;;;40.78;22.42;;;;;;;;;;5075099;28;20537;-65
2022/03/05 13:53:21;;;;;;;42.75;26.33;;;;;;;;;;5093060;28;20028;-66